createdAt,value
2018-06-05T00:02:03.911Z,84.32
2018-06-05T00:05:28.712Z,85.61
2018-06-05T00:08:53.429Z,85.94
2018-06-05T00:12:18.376Z,86.71
2018-06-05T00:15:43.055Z,86.69
2018-06-05T00:19:07.811Z,84.87
2018-06-05T00:22:32.658Z,85.34
2018-06-05T00:25:57.481Z,85.61
2018-06-05T00:29:22.337Z,86.66
2018-06-05T00:32:47.187Z,83.96
2018-06-05T00:36:12.075Z,83.81
2018-06-05T00:39:37.060Z,83.13
2018-06-05T00:43:02.248Z,83.48
2018-06-05T00:46:27.215Z,84.31
2018-06-05T00:49:52.095Z,84.68
2018-06-05T00:53:17.591Z,85.31
2018-06-05T00:56:42.573Z,86.33
2018-06-05T01:00:07.415Z,85.97
2018-06-05T01:03:32.292Z,84.92
2018-06-05T01:06:57.155Z,84.67
2018-06-05T01:10:21.821Z,85.30
2018-06-05T01:13:46.612Z,86.08
2018-06-05T01:17:11.415Z,85.54
2018-06-05T01:20:36.268Z,85.24
2018-06-05T01:24:01.197Z,85.16
2018-06-05T01:27:25.671Z,84.93
2018-06-05T01:30:50.537Z,84.10
2018-06-05T01:34:15.691Z,84.72
2018-06-05T01:37:40.527Z,84.04
2018-06-05T01:41:05.267Z,85.10
2018-06-05T01:45:54.654Z,86.16
2018-06-05T01:49:19.013Z,86.76
2018-06-05T01:52:43.817Z,86.30
2018-06-05T01:56:08.748Z,85.64
2018-06-05T01:59:33.603Z,86.47
2018-06-05T02:02:58.392Z,86.55
2018-06-05T02:06:23.291Z,84.60
2018-06-05T02:09:48.105Z,85.87
2018-06-05T02:13:12.970Z,85.09
2018-06-05T02:16:37.801Z,86.67
2018-06-05T02:20:02.550Z,84.87
2018-06-05T02:23:27.512Z,84.47
2018-06-05T02:26:52.352Z,85.82
2018-06-05T02:30:17.226Z,85.67
2018-06-05T02:33:41.997Z,84.98
2018-06-05T02:37:06.812Z,84.46
2018-06-05T02:40:31.643Z,83.61
2018-06-05T02:43:56.532Z,83.75
2018-06-05T02:47:21.343Z,83.51
2018-06-05T02:50:46.127Z,83.07
2018-06-05T02:54:10.946Z,84.12
2018-06-05T02:57:35.796Z,82.61
2018-06-05T03:01:00.757Z,82.14
2018-06-05T03:04:25.579Z,82.15
2018-06-05T03:07:50.415Z,84.16
2018-06-05T03:11:16.661Z,84.34
2018-06-05T03:14:41.490Z,84.80
2018-06-05T03:18:06.299Z,83.49
2018-06-05T03:21:31.058Z,83.23
2018-06-05T03:24:55.733Z,84.97
2018-06-05T03:28:20.665Z,84.53
2018-06-05T03:31:45.364Z,84.15
2018-06-05T03:35:10.172Z,85.25
2018-06-05T03:38:36.290Z,85.61
2018-06-05T03:42:01.104Z,86.65
2018-06-05T03:45:25.968Z,85.55
2018-06-05T03:48:50.359Z,86.04
2018-06-05T03:52:15.153Z,83.98
2018-06-05T03:55:39.999Z,84.59
2018-06-05T03:59:04.762Z,84.99
2018-06-05T04:02:29.661Z,83.95
2018-06-05T04:05:54.485Z,85.47
2018-06-05T04:09:19.163Z,85.94
2018-06-05T04:12:43.899Z,85.60
2018-06-05T04:16:08.621Z,85.25
2018-06-05T04:19:33.299Z,85.67
2018-06-05T04:30:52.240Z,84.73
2018-06-05T04:34:17.185Z,85.07
2018-06-05T04:37:41.586Z,85.32
2018-06-05T04:41:06.393Z,85.47
2018-06-05T04:44:31.182Z,84.55
2018-06-05T04:47:55.854Z,85.07
2018-06-05T04:51:20.724Z,85.54
2018-06-05T04:54:45.421Z,84.72
2018-06-05T04:58:10.128Z,83.63
2018-06-05T05:01:34.938Z,83.75
2018-06-05T05:04:59.738Z,83.25
2018-06-05T05:08:24.447Z,81.55
2018-06-05T05:11:49.503Z,82.98
2018-06-05T05:15:14.344Z,81.99
2018-06-05T05:19:12.976Z,82.03
2018-06-05T05:22:37.707Z,81.33
2018-06-05T05:26:02.561Z,81.66
2018-06-05T05:29:27.337Z,80.79
2018-06-05T05:32:52.219Z,80.80
2018-06-05T05:36:17.134Z,80.22
2018-06-05T05:39:41.876Z,80.24
2018-06-05T05:43:06.940Z,78.37
2018-06-05T05:46:31.638Z,77.98
2018-06-05T05:49:56.475Z,77.81
2018-06-05T05:53:21.127Z,77.33
2018-06-05T05:56:45.806Z,77.79
2018-06-05T06:00:10.516Z,78.09
2018-06-05T06:03:35.223Z,78.20
2018-06-05T06:06:59.695Z,78.58
2018-06-05T06:10:24.437Z,76.82
2018-06-05T06:13:49.144Z,76.98
2018-06-05T06:17:13.779Z,76.04
2018-06-05T06:20:38.439Z,74.66
2018-06-05T06:24:03.234Z,73.84
2018-06-05T06:27:27.945Z,73.06
2018-06-05T06:30:52.655Z,72.96
2018-06-05T06:34:17.470Z,72.28
2018-06-05T06:37:42.391Z,71.85
2018-06-05T06:41:07.164Z,73.22
2018-06-05T06:44:31.988Z,71.30
2018-06-05T06:47:56.617Z,71.68
2018-06-05T06:51:21.278Z,71.33
2018-06-05T06:54:46.160Z,70.91
2018-06-05T06:58:10.881Z,70.37
2018-06-05T07:01:35.634Z,70.61
2018-06-05T07:05:00.241Z,71.49
2018-06-05T07:08:25.022Z,72.00
2018-06-05T07:11:49.414Z,72.06
2018-06-05T07:15:14.109Z,72.86
2018-06-05T07:18:38.858Z,71.27
2018-06-05T07:22:03.509Z,70.84
2018-06-05T07:25:27.828Z,71.58
2018-06-05T07:28:52.707Z,70.16
2018-06-05T07:32:17.320Z,69.82
2018-06-05T07:35:42.076Z,68.56
2018-06-05T07:39:09.262Z,68.06
2018-06-05T07:42:34.058Z,66.08
2018-06-05T07:45:58.824Z,64.75
2018-06-05T07:49:23.166Z,64.83
2018-06-05T07:52:47.848Z,63.83
2018-06-05T07:56:12.692Z,62.90
2018-06-05T07:59:37.367Z,64.68
2018-06-05T08:03:02.096Z,66.37
2018-06-05T08:06:26.845Z,67.49
2018-06-05T08:09:51.700Z,68.42
2018-06-05T08:13:16.404Z,66.28
2018-06-05T08:16:41.119Z,66.32
2018-06-05T08:20:05.973Z,65.61
2018-06-05T08:23:30.619Z,64.22
2018-06-05T08:26:55.323Z,64.24
2018-06-05T08:30:20.333Z,63.33
2018-06-05T08:33:45.042Z,64.27
2018-06-05T08:37:09.972Z,66.95
2018-06-05T08:40:34.795Z,67.44
2018-06-05T08:43:59.539Z,66.79
2018-06-05T08:47:24.271Z,66.04
2018-06-05T08:50:48.946Z,65.13
2018-06-05T08:54:13.367Z,65.10
2018-06-05T08:57:38.036Z,64.43
2018-06-05T09:01:02.765Z,63.07
2018-06-05T09:04:27.042Z,62.90
2018-06-05T09:07:51.760Z,62.88
2018-06-05T09:11:16.534Z,61.09
2018-06-05T09:14:41.225Z,62.67
2018-06-05T09:18:05.996Z,63.30
2018-06-05T09:21:30.351Z,61.83
2018-06-05T09:24:55.060Z,60.48
2018-06-05T09:28:19.819Z,60.87
2018-06-05T09:31:44.118Z,62.10
2018-06-05T09:35:08.828Z,61.47
2018-06-05T09:38:33.606Z,60.85
2018-06-05T09:41:58.339Z,60.30
2018-06-05T09:45:23.102Z,59.35
2018-06-05T09:48:47.841Z,58.90
2018-06-05T09:52:12.490Z,57.69
2018-06-05T09:55:37.220Z,56.34
2018-06-05T09:59:01.924Z,56.06
2018-06-05T10:02:26.720Z,56.07
2018-06-05T10:05:51.386Z,54.77
2018-06-05T10:09:16.121Z,53.18
2018-06-05T10:12:40.444Z,53.80
2018-06-05T10:16:05.979Z,55.75
2018-06-05T10:19:30.969Z,57.25
2018-06-05T10:22:55.796Z,56.11
2018-06-05T10:26:20.569Z,56.40
2018-06-05T10:29:45.266Z,55.04
2018-06-05T10:33:10.556Z,52.89
2018-06-05T10:36:40.063Z,51.72
2018-06-05T10:40:05.850Z,50.42
2018-06-05T10:43:31.160Z,50.63
2018-06-05T10:46:57.048Z,50.44
2018-06-05T10:50:22.143Z,52.85
2018-06-05T10:53:47.099Z,51.95
2018-06-05T10:57:11.741Z,51.78
2018-06-05T11:00:36.590Z,49.26
2018-06-05T11:04:01.481Z,51.11
2018-06-05T11:07:26.233Z,51.84
2018-06-05T11:10:50.932Z,50.54
2018-06-05T11:14:16.250Z,52.41
2018-06-05T11:17:41.078Z,53.60
2018-06-05T11:21:05.835Z,54.61
2018-06-05T11:24:30.618Z,53.92
2018-06-05T11:27:54.974Z,51.10
2018-06-05T11:31:19.872Z,52.37
2018-06-05T11:34:44.588Z,50.09
2018-06-05T11:38:09.492Z,53.35
2018-06-05T11:41:33.874Z,51.64
2018-06-05T11:44:58.830Z,54.02
2018-06-05T11:48:23.598Z,54.07
2018-06-05T11:51:48.644Z,50.68
2018-06-05T11:55:13.275Z,51.61
2018-06-05T11:58:37.958Z,51.50
2018-06-05T12:02:12.514Z,48.61
2018-06-05T12:05:37.274Z,48.81
2018-06-05T12:09:01.763Z,49.10
2018-06-05T12:12:26.548Z,46.57
2018-06-05T12:15:51.260Z,47.87
2018-06-05T12:19:16.015Z,48.90
2018-06-05T12:22:40.885Z,45.43
2018-06-05T12:26:05.528Z,45.97
2018-06-05T12:29:31.382Z,44.99
2018-06-05T12:32:56.010Z,45.46
2018-06-05T12:36:20.914Z,45.37
2018-06-05T12:39:45.624Z,44.52
2018-06-05T12:43:10.330Z,46.80
2018-06-05T12:46:35.326Z,47.84
2018-06-05T12:50:00.124Z,48.61
2018-06-05T12:53:24.902Z,48.62
2018-06-05T12:56:49.817Z,48.28
2018-06-05T13:00:14.668Z,47.66
2018-06-05T13:03:39.371Z,45.53
2018-06-05T13:07:04.248Z,45.93
2018-06-05T13:10:29.117Z,46.63
2018-06-05T13:13:54.043Z,45.74
2018-06-05T13:17:18.958Z,44.82
2018-06-05T13:20:45.012Z,46.45
2018-06-05T13:24:10.290Z,43.86
2018-06-05T13:27:36.347Z,44.37
2018-06-05T13:31:01.585Z,44.48
2018-06-05T13:34:25.930Z,44.70
2018-06-05T13:37:50.656Z,43.77
2018-06-05T13:41:15.532Z,41.88
2018-06-05T13:44:40.190Z,41.62
2018-06-05T13:48:04.535Z,41.23
2018-06-05T13:51:29.382Z,41.73
2018-06-05T13:54:53.815Z,41.47
2018-06-05T13:58:22.712Z,40.14
2018-06-05T14:01:48.988Z,38.36
2018-06-05T14:05:15.624Z,38.80
2018-06-05T14:08:41.280Z,39.49
2018-06-05T14:12:07.055Z,38.75
2018-06-05T14:15:32.784Z,37.71
2018-06-05T14:18:59.828Z,38.08
2018-06-05T14:22:24.698Z,37.47
2018-06-05T14:25:50.644Z,38.20
2018-06-05T14:29:16.587Z,36.59
2018-06-05T14:32:43.094Z,37.40
2018-06-05T14:36:12.339Z,36.40
2018-06-05T14:39:37.598Z,36.98
2018-06-05T14:43:02.618Z,35.82
2018-06-05T14:46:28.692Z,35.93
2018-06-05T14:49:56.138Z,36.12
2018-06-05T14:54:03.011Z,36.45
2018-06-05T14:57:35.408Z,36.42
2018-06-05T15:01:01.405Z,36.34
2018-06-05T15:04:28.255Z,35.19
2018-06-05T15:07:53.720Z,37.21
2018-06-05T15:11:19.920Z,36.46
2018-06-05T15:14:46.377Z,37.18
2018-06-05T15:18:21.263Z,33.63
2018-06-05T15:21:48.163Z,33.76
2018-06-05T15:26:37.700Z,34.74
2018-06-05T15:30:03.591Z,33.76
2018-06-05T15:33:28.802Z,31.02
2018-06-05T15:36:53.530Z,30.92
2018-06-05T15:40:18.285Z,31.71
2018-06-05T15:43:43.065Z,29.98
2018-06-05T15:47:07.883Z,29.82
2018-06-05T15:50:32.664Z,31.15
2018-06-05T15:53:57.385Z,30.33
2018-06-05T15:57:22.323Z,31.62
2018-06-05T16:00:47.606Z,33.66
2018-06-05T16:04:12.574Z,33.41
2018-06-05T16:07:37.335Z,32.18
2018-06-05T16:11:02.000Z,31.94
2018-06-05T16:14:26.783Z,31.47
2018-06-05T16:17:52.634Z,30.87
2018-06-05T16:21:17.613Z,30.53
2018-06-05T16:24:43.263Z,30.59
2018-06-05T16:28:08.069Z,29.99
2018-06-05T16:31:32.937Z,31.91
2018-06-05T16:34:57.733Z,29.86
2018-06-05T16:38:22.511Z,31.00
2018-06-05T16:41:48.367Z,31.06
2018-06-05T16:45:13.487Z,30.24
2018-06-05T16:48:38.380Z,31.29
2018-06-05T16:52:03.098Z,30.11
2018-06-05T16:55:27.893Z,29.36
2018-06-05T16:58:52.704Z,30.61
2018-06-05T17:02:17.544Z,29.78
2018-06-05T17:05:42.255Z,31.55
2018-06-05T17:09:10.994Z,32.47
2018-06-05T17:12:36.123Z,30.88
2018-06-05T17:16:06.587Z,29.61
2018-06-05T17:19:31.562Z,30.56
2018-06-05T17:22:55.871Z,29.82
2018-06-05T17:26:20.834Z,28.71
2018-06-05T17:29:45.645Z,28.58
2018-06-05T17:33:11.538Z,28.88
2018-06-05T17:36:36.356Z,28.46
2018-06-05T17:40:01.188Z,29.55
2018-06-05T17:43:26.204Z,30.35
2018-06-05T17:46:51.616Z,31.55
2018-06-05T17:50:16.782Z,30.73
2018-06-05T17:53:41.473Z,30.74
2018-06-05T17:57:06.399Z,30.75
2018-06-05T18:00:31.159Z,31.39
2018-06-05T18:03:56.126Z,31.31
2018-06-05T18:07:21.070Z,40.42
2018-06-05T18:10:45.967Z,42.51
2018-06-05T18:14:10.570Z,43.02
2018-06-05T18:17:35.424Z,42.17
2018-06-05T18:21:00.540Z,42.88
2018-06-05T18:24:25.017Z,42.95
2018-06-05T18:27:50.098Z,42.83
2018-06-05T18:31:15.946Z,42.81
2018-06-05T18:34:41.301Z,44.60
2018-06-05T18:39:30.833Z,44.66
2018-06-05T18:42:56.010Z,45.44
2018-06-05T18:46:22.247Z,45.69
2018-06-05T18:49:48.364Z,46.86
2018-06-05T18:56:49.661Z,47.79
2018-06-05T19:00:14.525Z,47.37
2018-06-05T19:03:40.814Z,47.05
2018-06-05T19:11:36.868Z,47.86
2018-06-05T19:15:01.819Z,49.51
2018-06-05T19:18:27.942Z,50.65
2018-06-05T19:21:52.951Z,52.07
2018-06-05T19:25:17.762Z,52.49
2018-06-05T19:28:42.600Z,53.73
2018-06-05T19:32:07.521Z,54.39
2018-06-05T19:35:32.290Z,54.62
2018-06-05T19:38:58.194Z,55.89
2018-06-05T19:42:23.036Z,55.63
2018-06-05T19:45:47.825Z,56.08
2018-06-05T19:49:12.578Z,55.74
2018-06-05T19:52:37.347Z,56.14
2018-06-05T19:56:02.112Z,55.93
2018-06-05T19:59:26.876Z,56.17
2018-06-05T20:02:51.630Z,56.31
2018-06-05T20:06:16.505Z,55.52
2018-06-05T20:09:42.291Z,56.07
2018-06-05T20:13:08.633Z,57.07
2018-06-05T20:16:33.461Z,56.44
2018-06-05T20:19:58.832Z,57.01
2018-06-05T20:23:23.634Z,57.41
2018-06-05T20:26:48.380Z,56.54
2018-06-05T20:30:13.174Z,55.83
2018-06-05T20:33:38.130Z,57.04
2018-06-05T20:41:42.687Z,57.59
2018-06-05T20:45:07.857Z,58.07
2018-06-05T20:48:33.802Z,57.49
2018-06-05T20:51:59.432Z,57.26
2018-06-05T20:55:24.431Z,57.43
2018-06-05T20:58:49.450Z,57.96
2018-06-05T21:02:14.455Z,58.54
2018-06-05T21:05:39.347Z,57.52
2018-06-05T21:09:05.195Z,57.11
2018-06-05T21:12:30.247Z,58.14
2018-06-05T21:15:55.185Z,57.26
2018-06-05T21:19:20.306Z,57.67
2018-06-05T21:22:45.169Z,57.42
2018-06-05T21:26:10.654Z,56.81
2018-06-05T21:29:35.697Z,57.16
2018-06-05T21:33:00.527Z,56.76
2018-06-05T21:36:26.371Z,57.09
2018-06-05T21:39:51.238Z,58.51
2018-06-05T21:43:16.154Z,59.00
2018-06-05T21:46:41.243Z,58.84
2018-06-05T21:50:06.308Z,59.01
2018-06-05T21:53:31.139Z,60.76
2018-06-05T21:56:56.018Z,60.66
2018-06-05T22:00:24.452Z,59.86
2018-06-05T22:03:49.404Z,61.27
2018-06-05T22:07:14.256Z,60.16
2018-06-05T22:10:39.147Z,60.49
2018-06-05T22:14:04.128Z,60.72
2018-06-05T22:17:29.043Z,61.07
2018-06-05T22:20:53.997Z,60.61
2018-06-05T22:24:18.910Z,61.15
2018-06-05T22:27:43.845Z,60.40
2018-06-05T22:31:08.539Z,60.40
2018-06-05T22:34:33.433Z,61.22
2018-06-05T22:37:59.333Z,60.67
2018-06-05T22:41:24.173Z,61.09
2018-06-05T22:44:49.086Z,61.76
2018-06-05T22:48:14.120Z,61.38
2018-06-05T22:51:39.182Z,61.62
2018-06-05T22:55:05.177Z,61.99
2018-06-05T22:58:30.015Z,61.90
2018-06-05T23:01:54.786Z,62.41
2018-06-05T23:05:19.721Z,62.01
2018-06-05T23:08:45.828Z,62.34
2018-06-05T23:12:10.827Z,62.08
2018-06-05T23:15:35.741Z,61.68
2018-06-05T23:19:00.637Z,62.36
2018-06-05T23:22:25.607Z,62.03
2018-06-05T23:25:50.659Z,63.46
2018-06-05T23:29:15.595Z,63.05
2018-06-05T23:32:40.549Z,63.71
2018-06-05T23:36:05.407Z,63.61
2018-06-05T23:39:30.252Z,63.52
2018-06-05T23:42:55.174Z,63.96
2018-06-05T23:46:20.180Z,64.25
2018-06-05T23:49:45.053Z,64.41
2018-06-05T23:53:09.997Z,63.34
2018-06-05T23:56:35.798Z,63.32
